sensor_id;sensor_type;location;lat;lon;timestamp;temperature;humidity
7972;DHT22;4031;49.758;6.120;2023-02-18T00:00:26;9.80;99.90
7972;DHT22;4031;49.758;6.120;2023-02-18T00:02:53;9.80;99.90
7972;DHT22;4031;49.758;6.120;2023-02-18T00:05:21;9.80;99.90
7972;DHT22;4031;49.758;6.120;2023-02-18T00:07:46;9.80;99.90
7972;DHT22;4031;49.758;6.120;2023-02-18T00:10:14;9.80;99.90
7972;DHT22;4031;49.758;6.120;2023-02-18T00:12:40;9.70;99.90
7972;DHT22;4031;49.758;6.120;2023-02-18T00:15:06;9.80;99.90
7972;DHT22;4031;49.758;6.120;2023-02-18T00:17:33;9.70;99.90
7972;DHT22;4031;49.758;6.120;2023-02-18T00:19:59;9.70;99.90
7972;DHT22;4031;49.758;6.120;2023-02-18T00:22:25;9.80;99.90
7972;DHT22;4031;49.758;6.120;2023-02-18T00:24:51;9.70;99.90
7972;DHT22;4031;49.758;6.120;2023-02-18T00:27:17;9.70;99.90
7972;DHT22;4031;49.758;6.120;2023-02-18T00:29:43;9.70;99.90
7972;DHT22;4031;49.758;6.120;2023-02-18T00:32:08;9.70;99.90
7972;DHT22;4031;49.758;6.120;2023-02-18T00:34:34;9.70;99.90
7972;DHT22;4031;49.758;6.120;2023-02-18T00:37:00;9.60;99.90
7972;DHT22;4031;49.758;6.120;2023-02-18T00:39:25;9.70;99.90
7972;DHT22;4031;49.758;6.120;2023-02-18T00:41:51;9.70;99.90
7972;DHT22;4031;49.758;6.120;2023-02-18T00:44:17;9.70;99.90
7972;DHT22;4031;49.758;6.120;2023-02-18T00:46:43;9.70;99.90
7972;DHT22;4031;49.758;6.120;2023-02-18T00:49:09;9.60;99.90
7972;DHT22;4031;49.758;6.120;2023-02-18T00:51:35;9.60;99.90
7972;DHT22;4031;49.758;6.120;2023-02-18T00:54:01;9.60;99.90
7972;DHT22;4031;49.758;6.120;2023-02-18T00:56:27;9.60;99.90
7972;DHT22;4031;49.758;6.120;2023-02-18T00:58:53;9.60;99.90
7972;DHT22;4031;49.758;6.120;2023-02-18T01:01:19;9.60;99.90
7972;DHT22;4031;49.758;6.120;2023-02-18T01:03:45;9.60;99.90
7972;DHT22;4031;49.758;6.120;2023-02-18T01:06:12;9.60;99.90
7972;DHT22;4031;49.758;6.120;2023-02-18T01:08:39;9.60;99.90
7972;DHT22;4031;49.758;6.120;2023-02-18T01:11:06;9.60;99.90
7972;DHT22;4031;49.758;6.120;2023-02-18T01:13:33;9.60;99.90
7972;DHT22;4031;49.758;6.120;2023-02-18T01:15:59;9.60;99.90
7972;DHT22;4031;49.758;6.120;2023-02-18T01:18:25;9.60;99.90
7972;DHT22;4031;49.758;6.120;2023-02-18T01:20:51;9.60;99.90
7972;DHT22;4031;49.758;6.120;2023-02-18T01:23:17;9.70;99.90
7972;DHT22;4031;49.758;6.120;2023-02-18T01:25:43;9.60;99.90
7972;DHT22;4031;49.758;6.120;2023-02-18T01:28:11;9.60;99.90
7972;DHT22;4031;49.758;6.120;2023-02-18T01:30:38;9.60;99.90
7972;DHT22;4031;49.758;6.120;2023-02-18T01:33:04;9.60;99.90
7972;DHT22;4031;49.758;6.120;2023-02-18T01:35:30;9.60;99.90
7972;DHT22;4031;49.758;6.120;2023-02-18T01:37:56;9.60;99.90
7972;DHT22;4031;49.758;6.120;2023-02-18T01:40:26;9.60;99.90
7972;DHT22;4031;49.758;6.120;2023-02-18T01:42:53;9.70;99.90
7972;DHT22;4031;49.758;6.120;2023-02-18T01:51:15;9.70;99.90
7972;DHT22;4031;49.758;6.120;2023-02-18T01:54:04;9.70;99.90
7972;DHT22;4031;49.758;6.120;2023-02-18T01:59:23;9.70;99.90
7972;DHT22;4031;49.758;6.120;2023-02-18T02:01:51;9.60;99.90
7972;DHT22;4031;49.758;6.120;2023-02-18T02:04:18;9.60;99.90
7972;DHT22;4031;49.758;6.120;2023-02-18T02:06:44;9.60;99.90
7972;DHT22;4031;49.758;6.120;2023-02-18T02:09:12;9.60;99.90
7972;DHT22;4031;49.758;6.120;2023-02-18T02:15:09;9.60;99.90
7972;DHT22;4031;49.758;6.120;2023-02-18T02:27:18;9.60;99.90
7972;DHT22;4031;49.758;6.120;2023-02-18T02:36:15;9.50;99.90
7972;DHT22;4031;49.758;6.120;2023-02-18T02:38:58;9.50;99.90
7972;DHT22;4031;49.758;6.120;2023-02-18T02:41:51;9.60;99.90
7972;DHT22;4031;49.758;6.120;2023-02-18T02:44:42;9.50;99.90
7972;DHT22;4031;49.758;6.120;2023-02-18T02:47:33;9.50;99.90
7972;DHT22;4031;49.758;6.120;2023-02-18T02:53:17;9.50;99.90
7972;DHT22;4031;49.758;6.120;2023-02-18T02:55:46;9.50;99.90
7972;DHT22;4031;49.758;6.120;2023-02-18T02:58:15;9.50;99.90
7972;DHT22;4031;49.758;6.120;2023-02-18T03:16:22;9.40;99.90
7972;DHT22;4031;49.758;6.120;2023-02-18T03:22:08;9.40;99.90
7972;DHT22;4031;49.758;6.120;2023-02-18T03:24:43;9.40;99.90
7972;DHT22;4031;49.758;6.120;2023-02-18T03:30:23;9.30;99.90
7972;DHT22;4031;49.758;6.120;2023-02-18T03:32:56;9.30;99.90
7972;DHT22;4031;49.758;6.120;2023-02-18T03:35:25;9.30;99.90
7972;DHT22;4031;49.758;6.120;2023-02-18T03:37:58;9.20;99.90
7972;DHT22;4031;49.758;6.120;2023-02-18T03:40:28;9.20;99.90
7972;DHT22;4031;49.758;6.120;2023-02-18T03:42:56;9.10;99.90
7972;DHT22;4031;49.758;6.120;2023-02-18T03:45:24;9.00;99.90
7972;DHT22;4031;49.758;6.120;2023-02-18T03:47:51;9.00;99.90
7972;DHT22;4031;49.758;6.120;2023-02-18T03:50:17;9.00;99.90
7972;DHT22;4031;49.758;6.120;2023-02-18T03:52:43;8.90;99.90
7972;DHT22;4031;49.758;6.120;2023-02-18T03:55:09;8.90;99.90
7972;DHT22;4031;49.758;6.120;2023-02-18T03:57:35;8.90;99.90
7972;DHT22;4031;49.758;6.120;2023-02-18T04:00:02;8.90;99.90
7972;DHT22;4031;49.758;6.120;2023-02-18T04:02:30;8.90;99.90
7972;DHT22;4031;49.758;6.120;2023-02-18T04:04:55;8.90;99.90
7972;DHT22;4031;49.758;6.120;2023-02-18T04:07:21;8.90;99.90
7972;DHT22;4031;49.758;6.120;2023-02-18T04:09:47;8.90;99.90
7972;DHT22;4031;49.758;6.120;2023-02-18T04:12:13;8.90;99.90
7972;DHT22;4031;49.758;6.120;2023-02-18T04:14:38;8.90;99.90
7972;DHT22;4031;49.758;6.120;2023-02-18T04:17:05;8.80;99.90
7972;DHT22;4031;49.758;6.120;2023-02-18T04:19:31;8.80;99.90
7972;DHT22;4031;49.758;6.120;2023-02-18T04:21:56;8.80;99.90
7972;DHT22;4031;49.758;6.120;2023-02-18T04:24:22;8.80;99.90
7972;DHT22;4031;49.758;6.120;2023-02-18T04:26:48;8.70;99.90
7972;DHT22;4031;49.758;6.120;2023-02-18T04:29:13;8.70;99.90
7972;DHT22;4031;49.758;6.120;2023-02-18T04:31:39;8.70;99.90
7972;DHT22;4031;49.758;6.120;2023-02-18T04:34:05;8.70;99.90
7972;DHT22;4031;49.758;6.120;2023-02-18T04:36:31;8.70;99.90
7972;DHT22;4031;49.758;6.120;2023-02-18T04:38:56;8.70;99.90
7972;DHT22;4031;49.758;6.120;2023-02-18T04:41:23;8.70;99.90
7972;DHT22;4031;49.758;6.120;2023-02-18T04:43:49;8.60;99.90
7972;DHT22;4031;49.758;6.120;2023-02-18T04:46:14;8.60;99.90
7972;DHT22;4031;49.758;6.120;2023-02-18T04:48:40;8.60;99.90
7972;DHT22;4031;49.758;6.120;2023-02-18T04:51:06;8.50;99.90
7972;DHT22;4031;49.758;6.120;2023-02-18T04:53:32;8.50;99.90
7972;DHT22;4031;49.758;6.120;2023-02-18T04:55:58;8.50;99.90
7972;DHT22;4031;49.758;6.120;2023-02-18T04:58:24;8.50;99.90
7972;DHT22;4031;49.758;6.120;2023-02-18T05:00:50;8.50;99.90
7972;DHT22;4031;49.758;6.120;2023-02-18T05:03:17;8.50;99.90
7972;DHT22;4031;49.758;6.120;2023-02-18T05:05:43;8.50;99.90
7972;DHT22;4031;49.758;6.120;2023-02-18T05:08:10;8.60;99.90
7972;DHT22;4031;49.758;6.120;2023-02-18T05:10:37;8.60;99.90
7972;DHT22;4031;49.758;6.120;2023-02-18T05:13:03;8.70;99.90
7972;DHT22;4031;49.758;6.120;2023-02-18T05:15:28;8.70;99.90
7972;DHT22;4031;49.758;6.120;2023-02-18T05:17:54;8.70;99.90
7972;DHT22;4031;49.758;6.120;2023-02-18T05:20:20;8.70;99.90
7972;DHT22;4031;49.758;6.120;2023-02-18T05:22:46;8.70;99.90
7972;DHT22;4031;49.758;6.120;2023-02-18T05:25:12;8.70;99.90
7972;DHT22;4031;49.758;6.120;2023-02-18T05:27:37;8.70;99.90
7972;DHT22;4031;49.758;6.120;2023-02-18T05:30:04;8.70;99.90
7972;DHT22;4031;49.758;6.120;2023-02-18T05:32:30;8.70;99.90
7972;DHT22;4031;49.758;6.120;2023-02-18T05:34:56;8.70;99.90
7972;DHT22;4031;49.758;6.120;2023-02-18T05:37:21;8.70;99.90
7972;DHT22;4031;49.758;6.120;2023-02-18T05:39:47;8.70;99.90
7972;DHT22;4031;49.758;6.120;2023-02-18T05:42:13;8.70;99.90
7972;DHT22;4031;49.758;6.120;2023-02-18T05:44:39;8.80;99.90
7972;DHT22;4031;49.758;6.120;2023-02-18T05:47:06;8.80;99.90
7972;DHT22;4031;49.758;6.120;2023-02-18T05:49:35;8.80;99.90
7972;DHT22;4031;49.758;6.120;2023-02-18T05:52:02;8.90;99.90
7972;DHT22;4031;49.758;6.120;2023-02-18T05:54:29;8.90;99.90
7972;DHT22;4031;49.758;6.120;2023-02-18T05:56:55;8.90;99.90
7972;DHT22;4031;49.758;6.120;2023-02-18T05:59:21;8.90;99.90
7972;DHT22;4031;49.758;6.120;2023-02-18T06:01:47;8.90;99.90
7972;DHT22;4031;49.758;6.120;2023-02-18T06:04:13;8.80;99.90
7972;DHT22;4031;49.758;6.120;2023-02-18T06:06:39;8.90;99.90
7972;DHT22;4031;49.758;6.120;2023-02-18T06:09:06;8.90;99.90
7972;DHT22;4031;49.758;6.120;2023-02-18T06:11:32;8.90;99.90
7972;DHT22;4031;49.758;6.120;2023-02-18T06:13:57;8.90;99.90
7972;DHT22;4031;49.758;6.120;2023-02-18T06:16:24;8.80;99.90
7972;DHT22;4031;49.758;6.120;2023-02-18T06:18:49;8.80;99.90
7972;DHT22;4031;49.758;6.120;2023-02-18T06:21:15;8.80;99.90
7972;DHT22;4031;49.758;6.120;2023-02-18T06:23:41;8.80;99.90
7972;DHT22;4031;49.758;6.120;2023-02-18T06:26:07;8.80;99.90
7972;DHT22;4031;49.758;6.120;2023-02-18T06:28:33;8.90;99.90
7972;DHT22;4031;49.758;6.120;2023-02-18T06:30:58;8.90;99.90
7972;DHT22;4031;49.758;6.120;2023-02-18T06:33:24;8.90;99.90
7972;DHT22;4031;49.758;6.120;2023-02-18T06:36:04;8.90;99.90
7972;DHT22;4031;49.758;6.120;2023-02-18T06:38:33;8.90;99.90
7972;DHT22;4031;49.758;6.120;2023-02-18T06:40:59;8.80;99.90
7972;DHT22;4031;49.758;6.120;2023-02-18T06:43:25;8.80;99.90
7972;DHT22;4031;49.758;6.120;2023-02-18T06:45:51;8.80;99.90
7972;DHT22;4031;49.758;6.120;2023-02-18T06:48:16;8.80;99.90
7972;DHT22;4031;49.758;6.120;2023-02-18T06:50:43;8.80;99.90
7972;DHT22;4031;49.758;6.120;2023-02-18T06:53:09;8.80;99.90
7972;DHT22;4031;49.758;6.120;2023-02-18T06:55:35;8.80;99.90
7972;DHT22;4031;49.758;6.120;2023-02-18T06:58:01;8.80;99.90
7972;DHT22;4031;49.758;6.120;2023-02-18T07:00:26;8.80;99.90
7972;DHT22;4031;49.758;6.120;2023-02-18T07:02:52;8.80;99.90
7972;DHT22;4031;49.758;6.120;2023-02-18T07:05:18;8.90;99.90
7972;DHT22;4031;49.758;6.120;2023-02-18T07:07:44;8.90;99.90
7972;DHT22;4031;49.758;6.120;2023-02-18T07:10:10;8.90;99.90
7972;DHT22;4031;49.758;6.120;2023-02-18T07:12:36;8.90;99.90
7972;DHT22;4031;49.758;6.120;2023-02-18T07:15:02;8.90;99.90
7972;DHT22;4031;49.758;6.120;2023-02-18T07:17:27;8.90;99.90
7972;DHT22;4031;49.758;6.120;2023-02-18T07:19:53;8.90;99.90
7972;DHT22;4031;49.758;6.120;2023-02-18T07:22:21;9.00;99.90
7972;DHT22;4031;49.758;6.120;2023-02-18T07:24:53;9.00;99.90
7972;DHT22;4031;49.758;6.120;2023-02-18T07:27:19;8.90;99.90
7972;DHT22;4031;49.758;6.120;2023-02-18T07:29:46;8.90;99.90
7972;DHT22;4031;49.758;6.120;2023-02-18T07:32:12;8.90;99.90
7972;DHT22;4031;49.758;6.120;2023-02-18T07:34:39;8.90;99.90
7972;DHT22;4031;49.758;6.120;2023-02-18T07:37:05;8.90;99.90
7972;DHT22;4031;49.758;6.120;2023-02-18T07:39:34;8.90;99.90
7972;DHT22;4031;49.758;6.120;2023-02-18T07:42:02;8.90;99.90
7972;DHT22;4031;49.758;6.120;2023-02-18T07:44:28;9.00;99.90
7972;DHT22;4031;49.758;6.120;2023-02-18T07:46:55;9.00;99.90
7972;DHT22;4031;49.758;6.120;2023-02-18T07:49:20;9.00;99.90
7972;DHT22;4031;49.758;6.120;2023-02-18T07:51:47;9.00;99.90
7972;DHT22;4031;49.758;6.120;2023-02-18T07:54:13;9.00;99.90
7972;DHT22;4031;49.758;6.120;2023-02-18T07:56:39;8.90;99.90
7972;DHT22;4031;49.758;6.120;2023-02-18T07:59:07;8.90;99.90
7972;DHT22;4031;49.758;6.120;2023-02-18T08:01:33;9.00;99.90
7972;DHT22;4031;49.758;6.120;2023-02-18T08:03:59;9.00;99.90
7972;DHT22;4031;49.758;6.120;2023-02-18T08:06:33;9.00;99.90
7972;DHT22;4031;49.758;6.120;2023-02-18T08:09:00;9.10;99.90
7972;DHT22;4031;49.758;6.120;2023-02-18T08:11:26;9.10;99.90
7972;DHT22;4031;49.758;6.120;2023-02-18T08:13:52;9.10;99.90
7972;DHT22;4031;49.758;6.120;2023-02-18T08:16:19;9.10;99.90
7972;DHT22;4031;49.758;6.120;2023-02-18T08:18:46;9.10;99.90
7972;DHT22;4031;49.758;6.120;2023-02-18T08:21:15;9.10;99.90
7972;DHT22;4031;49.758;6.120;2023-02-18T08:23:41;9.20;99.90
7972;DHT22;4031;49.758;6.120;2023-02-18T08:26:08;9.20;99.90
7972;DHT22;4031;49.758;6.120;2023-02-18T08:28:34;9.20;99.90
7972;DHT22;4031;49.758;6.120;2023-02-18T08:30:59;9.30;99.90
7972;DHT22;4031;49.758;6.120;2023-02-18T08:33:25;9.30;99.90
7972;DHT22;4031;49.758;6.120;2023-02-18T08:35:54;9.30;99.90
7972;DHT22;4031;49.758;6.120;2023-02-18T08:38:21;9.30;99.90
7972;DHT22;4031;49.758;6.120;2023-02-18T08:40:48;9.30;99.90
7972;DHT22;4031;49.758;6.120;2023-02-18T08:43:15;9.30;99.90
7972;DHT22;4031;49.758;6.120;2023-02-18T08:45:42;9.20;99.90
7972;DHT22;4031;49.758;6.120;2023-02-18T08:48:10;9.30;99.90
7972;DHT22;4031;49.758;6.120;2023-02-18T08:50:38;9.30;99.90
7972;DHT22;4031;49.758;6.120;2023-02-18T08:53:04;9.40;99.90
7972;DHT22;4031;49.758;6.120;2023-02-18T08:55:31;9.40;99.90
7972;DHT22;4031;49.758;6.120;2023-02-18T08:57:58;9.50;99.90
7972;DHT22;4031;49.758;6.120;2023-02-18T09:00:24;9.50;99.90
7972;DHT22;4031;49.758;6.120;2023-02-18T09:02:50;9.50;99.90
7972;DHT22;4031;49.758;6.120;2023-02-18T09:05:16;9.50;99.90
7972;DHT22;4031;49.758;6.120;2023-02-18T09:07:42;9.40;99.90
7972;DHT22;4031;49.758;6.120;2023-02-18T09:10:11;9.40;99.90
7972;DHT22;4031;49.758;6.120;2023-02-18T09:12:37;9.40;99.90
7972;DHT22;4031;49.758;6.120;2023-02-18T09:15:03;9.40;99.90
7972;DHT22;4031;49.758;6.120;2023-02-18T09:17:29;9.50;99.90
7972;DHT22;4031;49.758;6.120;2023-02-18T09:19:55;9.50;99.90
7972;DHT22;4031;49.758;6.120;2023-02-18T09:22:21;9.50;99.90
7972;DHT22;4031;49.758;6.120;2023-02-18T09:24:47;9.60;99.90
7972;DHT22;4031;49.758;6.120;2023-02-18T09:27:12;9.60;99.90
7972;DHT22;4031;49.758;6.120;2023-02-18T09:29:40;9.70;99.90
7972;DHT22;4031;49.758;6.120;2023-02-18T09:32:07;9.70;99.90
7972;DHT22;4031;49.758;6.120;2023-02-18T09:34:34;9.80;99.90
7972;DHT22;4031;49.758;6.120;2023-02-18T09:37:01;9.80;99.90
7972;DHT22;4031;49.758;6.120;2023-02-18T09:39:27;9.70;99.90
7972;DHT22;4031;49.758;6.120;2023-02-18T09:41:54;9.70;99.90
7972;DHT22;4031;49.758;6.120;2023-02-18T09:44:37;9.80;99.90
7972;DHT22;4031;49.758;6.120;2023-02-18T09:47:16;9.80;99.90
7972;DHT22;4031;49.758;6.120;2023-02-18T09:49:49;9.80;99.90
7972;DHT22;4031;49.758;6.120;2023-02-18T09:52:27;9.80;99.90
7972;DHT22;4031;49.758;6.120;2023-02-18T09:54:56;9.80;99.90
7972;DHT22;4031;49.758;6.120;2023-02-18T10:03:16;9.80;99.90
7972;DHT22;4031;49.758;6.120;2023-02-18T10:08:44;9.90;99.90
7972;DHT22;4031;49.758;6.120;2023-02-18T10:11:17;10.00;99.90
7972;DHT22;4031;49.758;6.120;2023-02-18T10:13:48;10.00;99.90
7972;DHT22;4031;49.758;6.120;2023-02-18T10:16:16;10.00;99.90
7972;DHT22;4031;49.758;6.120;2023-02-18T10:18:45;10.00;99.90
7972;DHT22;4031;49.758;6.120;2023-02-18T10:21:33;10.00;99.90
7972;DHT22;4031;49.758;6.120;2023-02-18T10:24:01;10.10;99.90
7972;DHT22;4031;49.758;6.120;2023-02-18T10:26:33;10.00;99.90
7972;DHT22;4031;49.758;6.120;2023-02-18T10:29:00;10.00;99.90
7972;DHT22;4031;49.758;6.120;2023-02-18T10:31:36;10.00;99.90
7972;DHT22;4031;49.758;6.120;2023-02-18T10:34:35;10.00;99.90
7972;DHT22;4031;49.758;6.120;2023-02-18T10:37:25;9.90;99.90
7972;DHT22;4031;49.758;6.120;2023-02-18T10:45:51;9.80;99.90
7972;DHT22;4031;49.758;6.120;2023-02-18T10:48:48;9.80;99.90
7972;DHT22;4031;49.758;6.120;2023-02-18T10:51:27;9.80;99.90
7972;DHT22;4031;49.758;6.120;2023-02-18T10:53:54;9.80;99.90
7972;DHT22;4031;49.758;6.120;2023-02-18T10:59:19;9.80;99.90
7972;DHT22;4031;49.758;6.120;2023-02-18T11:02:13;9.80;99.90
7972;DHT22;4031;49.758;6.120;2023-02-18T11:04:43;9.80;99.90
7972;DHT22;4031;49.758;6.120;2023-02-18T11:07:22;9.90;99.90
7972;DHT22;4031;49.758;6.120;2023-02-18T11:10:01;9.80;99.90
7972;DHT22;4031;49.758;6.120;2023-02-18T11:12:48;9.80;99.90
7972;DHT22;4031;49.758;6.120;2023-02-18T11:15:21;9.80;99.90
7972;DHT22;4031;49.758;6.120;2023-02-18T11:18:12;9.80;99.90
7972;DHT22;4031;49.758;6.120;2023-02-18T11:21:00;9.90;99.90
7972;DHT22;4031;49.758;6.120;2023-02-18T11:23:28;10.00;99.90
7972;DHT22;4031;49.758;6.120;2023-02-18T11:25:58;10.00;99.90
7972;DHT22;4031;49.758;6.120;2023-02-18T11:31:02;10.20;99.90
7972;DHT22;4031;49.758;6.120;2023-02-18T11:36:18;10.20;99.90
7972;DHT22;4031;49.758;6.120;2023-02-18T11:39:20;10.20;99.90
7972;DHT22;4031;49.758;6.120;2023-02-18T11:42:04;10.20;99.90
7972;DHT22;4031;49.758;6.120;2023-02-18T11:44:36;10.30;99.90
7972;DHT22;4031;49.758;6.120;2023-02-18T11:49:57;10.40;99.90
7972;DHT22;4031;49.758;6.120;2023-02-18T11:52:29;10.30;99.90
7972;DHT22;4031;49.758;6.120;2023-02-18T11:57:34;10.50;99.90
7972;DHT22;4031;49.758;6.120;2023-02-18T12:00:05;10.50;99.90
7972;DHT22;4031;49.758;6.120;2023-02-18T12:02:40;10.60;99.90
7972;DHT22;4031;49.758;6.120;2023-02-18T12:05:20;10.60;99.90
7972;DHT22;4031;49.758;6.120;2023-02-18T12:10:48;10.80;99.90
7972;DHT22;4031;49.758;6.120;2023-02-18T12:13:33;10.80;99.90
7972;DHT22;4031;49.758;6.120;2023-02-18T12:22:44;10.70;99.90
7972;DHT22;4031;49.758;6.120;2023-02-18T12:37:52;10.70;99.90
7972;DHT22;4031;49.758;6.120;2023-02-18T12:49:20;11.00;99.90
7972;DHT22;4031;49.758;6.120;2023-02-18T12:52:37;11.10;99.90
7972;DHT22;4031;49.758;6.120;2023-02-18T12:55:37;10.90;99.90
7972;DHT22;4031;49.758;6.120;2023-02-18T13:01:32;10.60;99.90
7972;DHT22;4031;49.758;6.120;2023-02-18T13:13:12;10.20;99.90
7972;DHT22;4031;49.758;6.120;2023-02-18T13:15:54;10.10;99.90
7972;DHT22;4031;49.758;6.120;2023-02-18T13:18:36;10.10;99.90
7972;DHT22;4031;49.758;6.120;2023-02-18T13:21:07;10.20;99.90
7972;DHT22;4031;49.758;6.120;2023-02-18T13:23:57;10.20;99.90
7972;DHT22;4031;49.758;6.120;2023-02-18T13:26:27;10.20;99.90
7972;DHT22;4031;49.758;6.120;2023-02-18T13:40:26;10.30;99.90
7972;DHT22;4031;49.758;6.120;2023-02-18T13:45:43;10.20;99.90
7972;DHT22;4031;49.758;6.120;2023-02-18T13:54:30;10.00;99.90
7972;DHT22;4031;49.758;6.120;2023-02-18T13:57:04;10.00;99.90
7972;DHT22;4031;49.758;6.120;2023-02-18T13:59:36;10.00;99.90
7972;DHT22;4031;49.758;6.120;2023-02-18T14:05:22;10.00;99.90
7972;DHT22;4031;49.758;6.120;2023-02-18T14:08:14;10.00;99.90
7972;DHT22;4031;49.758;6.120;2023-02-18T14:13:46;10.00;99.90
7972;DHT22;4031;49.758;6.120;2023-02-18T14:16:13;10.00;99.90
7972;DHT22;4031;49.758;6.120;2023-02-18T14:23:41;10.00;99.90
7972;DHT22;4031;49.758;6.120;2023-02-18T14:37:12;9.90;99.90
7972;DHT22;4031;49.758;6.120;2023-02-18T14:40:33;9.80;99.90
7972;DHT22;4031;49.758;6.120;2023-02-18T14:43:15;9.80;99.90
7972;DHT22;4031;49.758;6.120;2023-02-18T14:51:57;9.80;99.90
7972;DHT22;4031;49.758;6.120;2023-02-18T14:54:24;9.70;99.90
7972;DHT22;4031;49.758;6.120;2023-02-18T14:57:05;9.70;99.90
7972;DHT22;4031;49.758;6.120;2023-02-18T14:59:35;9.70;99.90
7972;DHT22;4031;49.758;6.120;2023-02-18T15:02:23;9.70;99.90
7972;DHT22;4031;49.758;6.120;2023-02-18T15:05:18;9.80;99.90
7972;DHT22;4031;49.758;6.120;2023-02-18T15:10:21;9.80;99.90
7972;DHT22;4031;49.758;6.120;2023-02-18T15:12:51;9.80;99.90
7972;DHT22;4031;49.758;6.120;2023-02-18T15:15:23;9.80;99.90
7972;DHT22;4031;49.758;6.120;2023-02-18T15:17:49;9.70;99.90
7972;DHT22;4031;49.758;6.120;2023-02-18T15:20:16;9.60;99.90
7972;DHT22;4031;49.758;6.120;2023-02-18T15:22:42;9.40;99.90
7972;DHT22;4031;49.758;6.120;2023-02-18T15:25:11;9.30;99.90
7972;DHT22;4031;49.758;6.120;2023-02-18T15:27:40;9.30;99.90
7972;DHT22;4031;49.758;6.120;2023-02-18T15:30:25;9.20;99.90
7972;DHT22;4031;49.758;6.120;2023-02-18T15:32:57;9.10;99.90
7972;DHT22;4031;49.758;6.120;2023-02-18T15:35:27;9.00;99.90
7972;DHT22;4031;49.758;6.120;2023-02-18T15:37:57;9.00;99.90
7972;DHT22;4031;49.758;6.120;2023-02-18T15:40:29;8.90;99.90
7972;DHT22;4031;49.758;6.120;2023-02-18T15:42:59;8.90;99.90
7972;DHT22;4031;49.758;6.120;2023-02-18T15:45:55;8.80;99.90
7972;DHT22;4031;49.758;6.120;2023-02-18T15:48:29;8.80;99.90
7972;DHT22;4031;49.758;6.120;2023-02-18T15:51:01;8.70;99.90
7972;DHT22;4031;49.758;6.120;2023-02-18T15:53:29;8.70;99.90
7972;DHT22;4031;49.758;6.120;2023-02-18T15:55:55;8.60;99.90
7972;DHT22;4031;49.758;6.120;2023-02-18T15:58:30;8.60;99.90
7972;DHT22;4031;49.758;6.120;2023-02-18T16:00:59;8.60;99.90
7972;DHT22;4031;49.758;6.120;2023-02-18T16:03:27;8.60;99.90
7972;DHT22;4031;49.758;6.120;2023-02-18T16:06:33;8.50;99.90
7972;DHT22;4031;49.758;6.120;2023-02-18T16:09:01;8.50;99.90
7972;DHT22;4031;49.758;6.120;2023-02-18T16:11:36;8.50;99.90
7972;DHT22;4031;49.758;6.120;2023-02-18T16:14:04;8.50;99.90
7972;DHT22;4031;49.758;6.120;2023-02-18T16:16:33;8.40;99.90
7972;DHT22;4031;49.758;6.120;2023-02-18T16:19:02;8.40;99.90
7972;DHT22;4031;49.758;6.120;2023-02-18T16:21:38;8.40;99.90
7972;DHT22;4031;49.758;6.120;2023-02-18T16:24:26;8.40;99.90
7972;DHT22;4031;49.758;6.120;2023-02-18T16:26:56;8.30;99.90
7972;DHT22;4031;49.758;6.120;2023-02-18T16:29:40;8.30;99.90
7972;DHT22;4031;49.758;6.120;2023-02-18T16:32:06;8.30;99.90
7972;DHT22;4031;49.758;6.120;2023-02-18T16:34:32;8.30;99.90
7972;DHT22;4031;49.758;6.120;2023-02-18T16:37:00;8.30;99.90
7972;DHT22;4031;49.758;6.120;2023-02-18T16:39:45;8.30;99.90
7972;DHT22;4031;49.758;6.120;2023-02-18T16:42:12;8.30;99.90
7972;DHT22;4031;49.758;6.120;2023-02-18T16:44:38;8.20;99.90
7972;DHT22;4031;49.758;6.120;2023-02-18T16:47:05;8.20;99.90
7972;DHT22;4031;49.758;6.120;2023-02-18T16:49:32;8.20;99.90
7972;DHT22;4031;49.758;6.120;2023-02-18T16:52:00;8.20;99.90
7972;DHT22;4031;49.758;6.120;2023-02-18T16:54:30;8.20;99.90
7972;DHT22;4031;49.758;6.120;2023-02-18T16:56:56;8.20;99.90
7972;DHT22;4031;49.758;6.120;2023-02-18T16:59:22;8.20;99.90
7972;DHT22;4031;49.758;6.120;2023-02-18T17:01:50;8.10;99.90
7972;DHT22;4031;49.758;6.120;2023-02-18T17:04:17;8.10;99.90
7972;DHT22;4031;49.758;6.120;2023-02-18T17:06:44;8.10;99.90
7972;DHT22;4031;49.758;6.120;2023-02-18T17:09:18;8.10;99.90
7972;DHT22;4031;49.758;6.120;2023-02-18T17:11:48;8.10;99.90
7972;DHT22;4031;49.758;6.120;2023-02-18T17:14:17;8.10;99.90
7972;DHT22;4031;49.758;6.120;2023-02-18T17:16:44;8.10;99.90
7972;DHT22;4031;49.758;6.120;2023-02-18T17:19:14;8.10;99.90
7972;DHT22;4031;49.758;6.120;2023-02-18T17:21:41;8.10;99.90
7972;DHT22;4031;49.758;6.120;2023-02-18T17:24:11;8.10;99.90
7972;DHT22;4031;49.758;6.120;2023-02-18T17:26:38;8.10;99.90
7972;DHT22;4031;49.758;6.120;2023-02-18T17:29:04;8.10;99.90
7972;DHT22;4031;49.758;6.120;2023-02-18T17:31:34;8.10;99.90
7972;DHT22;4031;49.758;6.120;2023-02-18T17:34:08;8.10;99.90
7972;DHT22;4031;49.758;6.120;2023-02-18T17:36:41;8.10;99.90
7972;DHT22;4031;49.758;6.120;2023-02-18T17:39:14;8.10;99.90
7972;DHT22;4031;49.758;6.120;2023-02-18T17:41:42;8.10;99.90
7972;DHT22;4031;49.758;6.120;2023-02-18T17:44:19;8.00;99.90
7972;DHT22;4031;49.758;6.120;2023-02-18T17:46:47;8.00;99.90
7972;DHT22;4031;49.758;6.120;2023-02-18T17:49:14;8.00;99.90
7972;DHT22;4031;49.758;6.120;2023-02-18T17:51:41;8.10;99.90
7972;DHT22;4031;49.758;6.120;2023-02-18T17:54:13;8.00;99.90
7972;DHT22;4031;49.758;6.120;2023-02-18T17:56:43;8.10;99.90
7972;DHT22;4031;49.758;6.120;2023-02-18T17:59:09;8.00;99.90
7972;DHT22;4031;49.758;6.120;2023-02-18T18:01:35;8.10;99.90
7972;DHT22;4031;49.758;6.120;2023-02-18T18:04:01;8.10;99.90
7972;DHT22;4031;49.758;6.120;2023-02-18T18:06:29;8.00;99.90
7972;DHT22;4031;49.758;6.120;2023-02-18T18:08:55;8.10;99.90
7972;DHT22;4031;49.758;6.120;2023-02-18T18:11:24;8.10;99.90
7972;DHT22;4031;49.758;6.120;2023-02-18T18:13:50;8.10;99.90
7972;DHT22;4031;49.758;6.120;2023-02-18T18:16:20;8.10;99.90
7972;DHT22;4031;49.758;6.120;2023-02-18T18:18:45;8.00;99.90
7972;DHT22;4031;49.758;6.120;2023-02-18T18:21:30;8.00;99.90
7972;DHT22;4031;49.758;6.120;2023-02-18T18:23:57;8.00;99.90
7972;DHT22;4031;49.758;6.120;2023-02-18T18:26:23;8.00;99.90
7972;DHT22;4031;49.758;6.120;2023-02-18T18:28:49;8.10;99.90
7972;DHT22;4031;49.758;6.120;2023-02-18T18:31:16;8.00;99.90
7972;DHT22;4031;49.758;6.120;2023-02-18T18:33:44;8.00;99.90
7972;DHT22;4031;49.758;6.120;2023-02-18T18:36:13;8.00;99.90
7972;DHT22;4031;49.758;6.120;2023-02-18T18:38:40;8.00;99.90
7972;DHT22;4031;49.758;6.120;2023-02-18T18:41:41;8.00;99.90
7972;DHT22;4031;49.758;6.120;2023-02-18T18:44:01;8.00;99.90
7972;DHT22;4031;49.758;6.120;2023-02-18T18:46:28;8.00;99.90
7972;DHT22;4031;49.758;6.120;2023-02-18T18:48:54;8.00;99.90
7972;DHT22;4031;49.758;6.120;2023-02-18T18:51:26;8.00;99.90
7972;DHT22;4031;49.758;6.120;2023-02-18T18:53:53;8.00;99.90
7972;DHT22;4031;49.758;6.120;2023-02-18T18:56:18;8.00;99.90
7972;DHT22;4031;49.758;6.120;2023-02-18T18:58:44;8.00;99.90
7972;DHT22;4031;49.758;6.120;2023-02-18T19:01:20;8.00;99.90
7972;DHT22;4031;49.758;6.120;2023-02-18T19:03:51;8.00;99.90
7972;DHT22;4031;49.758;6.120;2023-02-18T19:06:18;8.00;99.90
7972;DHT22;4031;49.758;6.120;2023-02-18T19:08:45;8.10;99.90
7972;DHT22;4031;49.758;6.120;2023-02-18T19:11:12;8.00;99.90
7972;DHT22;4031;49.758;6.120;2023-02-18T19:13:39;8.10;99.90
7972;DHT22;4031;49.758;6.120;2023-02-18T19:18:33;8.00;99.90
7972;DHT22;4031;49.758;6.120;2023-02-18T19:20:59;8.00;99.90
7972;DHT22;4031;49.758;6.120;2023-02-18T19:23:29;8.00;99.90
7972;DHT22;4031;49.758;6.120;2023-02-18T19:25:57;8.00;99.90
7972;DHT22;4031;49.758;6.120;2023-02-18T19:28:23;8.00;99.90
7972;DHT22;4031;49.758;6.120;2023-02-18T19:30:49;8.00;99.90
7972;DHT22;4031;49.758;6.120;2023-02-18T19:33:15;8.00;99.90